INFORMACIÓN METAR y TAF
METAR FOR LEMG
ADDS - METARS form results

(0748 UTC 21 June 2021)
Data provider http://aviationweather.gov/metar/data/
 
METAR text: LEMG 210730Z 30005KT 270V330 9999 FEW040 23/15 Q1013 NOSIG
Conditions at: LEMG (MALAGA (CIV/MIL), ES) observed 0730 UTC 21 June 2021
Temperature: 23.0°C (73°F)
Dewpoint: 15.0°C (59°F) [RH = 61%]
Pressure (altimeter): 29.91 inches Hg (1013.0 mb)
Winds: from the WNW (300 degrees) at 6 MPH (5 knots; 2.6 m/s)
Visibility: 6 or more miles (10+ km)
Ceiling: at least 12,000 feet AGL
Clouds: few clouds at 4000 feet AGL
Weather: no significant weather observed at this time

METAR text: LEMG 210700Z 27007KT 240V320 9999 FEW040 23/15 Q1013 NOSIG
Conditions at: LEMG (MALAGA (CIV/MIL), ES) observed 0700 UTC 21 June 2021
Temperature: 23.0°C (73°F)
Dewpoint: 15.0°C (59°F) [RH = 61%]
Pressure (altimeter): 29.91 inches Hg (1013.0 mb)
Winds: from the W (270 degrees) at 8 MPH (7 knots; 3.6 m/s)
Visibility: 6 or more miles (10+ km)
Ceiling: at least 12,000 feet AGL
Clouds: few clouds at 4000 feet AGL
Weather: no significant weather observed at this time

Forecast for: LEMG (MALAGA (CIV/MIL), ES)
Text: TAF LEMG 210500Z 2106/2206 30008KT 9999 FEW040 TX31/2116Z TN20/2205Z
Forecast period: 0600 UTC 21 June 2021 to 0600 UTC 22 June 2021
Forecast type: FROM: standard forecast or significant change
Winds: from the WNW (300 degrees) at 9 MPH (8 knots; 4.1 m/s)
Visibility: 6 or more miles (10+ km)
Ceiling: at least 12,000 feet AGL
Clouds: few clouds at 4000 feet AGL
Weather: no significant weather forecast for this period
Text: PROB40
Forecast period: 1000 to 1600 UTC 21 June 2021
Forecast type: TEMPORARY: The following changes expected for less than half the time period
Winds: from the SSW (210 degrees) at 12 MPH (10 knots; 5.1 m/s)
Visibility: missing
Ceiling: unknown
Clouds: missing
Weather: no significant weather forecast for this period

 MAPA DE AEROPUERTO

Add a default marker
 INFORMACIÓN DE PISTA
Pista 12 Longitud 9022 ft Ancho 148 ft
Elevación 52 ft Umbral desplazado 0 ft Rumbo de pista 119
Pista 30 Longitud 9022 ft Ancho 148 ft
Elevación 31 ft Umbral desplazado 0 ft Rumbo de pista 299
Pista 13 Longitud 10500 ft Ancho 148 ft
Elevación 52 ft Umbral desplazado 0 ft Rumbo de pista 133
Pista 31 Longitud 10500 ft Ancho 148 ft
Elevación 31 ft Umbral desplazado 0 ft Rumbo de pista 313

 FRECUANCIAS DEL AEROPUERTO
Tipo A/D Nombre APP Frecuencia 123.85 MHZ
Tipo ATIS Nombre ATIS Frecuencia 120.375 MHZ
Tipo CLD Nombre CLR DEL Frecuencia 121.875 MHZ
Tipo GND Nombre GND-W Frecuencia 121.7 MHZ
Tipo GND Nombre GND-E Frecuencia 121.95 MHZ
Tipo TWR Nombre TWR-W (RWY Frecuencia 118.15 MHZ
Tipo TWR Nombre TWR-E (RWY Frecuencia 118.775 MHZ

 RADIO AYUDAS DEL AEROPUERTO
Tipo VOR-DME Nombre Martin Frecuencia 112600 KHZ
Tipo VOR-DME Nombre Malaga Frecuencia 112000 KHZ
Tipo VOR-DME Nombre Malaga Frecuencia 113550 KHZ
Tipo NDB Nombre Malaga Frecuencia 330 KHZ



Powered by Virtual Airlines Manager [v2.6.2]